Terminal Aerodrome Forecast
Issued by NWS Indianapolis, IN

Home | Current Version | Previous Version | Text Only | Print | Product List | Glossary On
Versions: 1 2 3 4 5 6 7 8 9 10 11 12 13 14 15 16 17 18 19 20 21 22 23 24 25
000
FTUS43 KIND 242000 AAB
TAFIND
TAF AMD
KIND 242033Z 2421/2524 19004KT P6SM FEW020 SCT250
     FM242200 21005KT P6SM SCT035 BKN250
     FM251500 25011KT P6SM BKN050=

USA.gov is the U.S. government's official web portal to all federal, state and local government web resources and services.